Terminal Aerodrome Forecast
Issued by NWS

Home | Current Version | Previous Version | Text Only | Print | Product List | Glossary On
Versions: 1 2 3 4 5 6 7 8 9 10 11 12 13 14 15 16 17
124
FTUS41 KPBZ 182320
TAFHLG
TAF
KHLG 182320Z 1900/1924 26006KT P6SM FEW045
     FM190800 24003KT 5SM BR FEW025
     FM191300 24005KT P6SM SCT045
     FM191900 25007KT P6SM VCTS BKN045CB
     FM192000 26005KT P6SM -SHRA VCTS BKN045CB=

USA.gov is the U.S. government's official web portal to all federal, state and local government web resources and services.